Volgoneft-250 — UFQT — position and weather

sailwx.info

Track history (hours):
 
Tides and Currents Weather Stations Pressure Air Temp Water Temp Dewpoint Dewpoint Depression Visibility Wind Speed Wind Dir Waves Ship Positions

Volgoneft-250

Last reported at 2016-Aug-22 21:34 UTC. Time now 2016-Aug-29 21:41 UTC.
Position N 45°31' E 036°46'.

Length 132 m; draft 2.7 m.

Type: Tanker. MMSI: 273340600.

Date/timePositionNaut miles runAvg speedWind from/ knotsBaromVisibWave heightAir tempDewpointWater temp
2016-Aug-22 21:34N 45°31' E 036°46'8 7.8
2016-Aug-22 20:33N 45°24' E 036°41'7 6.9
2016-Aug-22 19:33N 45°19' E 036°33'6 6.3
2016-Aug-22 18:32N 45°14' E 036°28'5 4.7
2016-Aug-22 17:23N 45°09' E 036°32'3 1.2
2016-Aug-22 14:33N 45°06' E 036°35'0 0.0
2016-Aug-22 12:24N 45°06' E 036°35'0 0.0
2016-Aug-22 11:21N 45°06' E 036°35'0 0.1
2016-Aug-22 10:21N 45°06' E 036°35'0 0.0
2016-Aug-22 09:32N 45°06' E 036°35'0 0.0
2016-Aug-22 08:33N 45°06' E 036°35'6 1.2
2016-Aug-22 03:33N 45°10' E 036°28'9 4.5
2016-Aug-22 01:33N 45°19' E 036°32'6 5.7
2016-Aug-22 00:34N 45°21' E 036°39'7 6.5
2016-Aug-21 23:33N 45°27' E 036°42'4 1.7
2016-Aug-21 21:29N 45°30' E 036°45'0 0.0
2016-Aug-21 20:21N 45°30' E 036°45'0 0.0
2016-Aug-21 17:32N 45°30' E 036°45'0 0.0
2016-Aug-21 16:15N 45°30' E 036°45'0 0.0
2016-Aug-21 15:33N 45°30' E 036°45'0 0.0
2016-Aug-21 14:31N 45°30' E 036°45'0 0.0
2016-Aug-21 13:30N 45°30' E 036°45'0 0.0
2016-Aug-21 12:21N 45°30' E 036°45'0 0.0
2016-Aug-21 11:33N 45°30' E 036°45'0 0.0
2016-Aug-21 09:04N 45°30' E 036°45'0 0.0
2016-Aug-21 08:24N 45°30' E 036°45'0 0.0
2016-Aug-21 05:24N 45°30' E 036°45'0 0.0
2016-Aug-20 21:32N 45°30' E 036°45'0 0.0
2016-Aug-20 20:33N 45°30' E 036°45'0 0.0
2016-Aug-20 17:27N 45°30' E 036°45'0 0.0
2016-Aug-20 16:33N 45°30' E 036°45'0 0.0
2016-Aug-20 15:07N 45°30' E 036°45'0 0.0
2016-Aug-20 14:24N 45°30' E 036°45'0 0.0
2016-Aug-20 13:32N 45°30' E 036°45'0 0.0
2016-Aug-20 12:14N 45°30' E 036°45'0 0.0
2016-Aug-20 11:34N 45°30' E 036°45'0 0.0
2016-Aug-20 08:29N 45°30' E 036°45'0 0.0
2016-Aug-20 06:12N 45°30' E 036°45'0 0.0
2016-Aug-20 05:33N 45°30' E 036°45'0 0.0
2016-Aug-20 04:25N 45°30' E 036°45'0 0.0
2016-Aug-20 03:24N 45°30' E 036°45'0 0.0
2016-Aug-20 02:31N 45°30' E 036°45'0 0.0
2016-Aug-20 01:05N 45°30' E 036°45'0 0.0
2016-Aug-19 11:33N 45°30' E 036°45'0 0.0
2016-Aug-19 10:25N 45°30' E 036°45'0 0.0
2016-Aug-19 09:30N 45°30' E 036°45'0 0.0
2016-Aug-19 08:32N 45°30' E 036°45'0 0.0
2016-Aug-19 07:33N 45°30' E 036°45'0 0.1
2016-Aug-19 06:31N 45°30' E 036°45'0 0.1
2016-Aug-19 05:33N 45°30' E 036°45'0 0.0
2016-Aug-19 04:32N 45°30' E 036°45'0 0.0
2016-Aug-19 03:33N 45°30' E 036°45'0 0.0
2016-Aug-19 02:11N 45°30' E 036°45'0 0.0
2016-Aug-18 23:21N 45°30' E 036°45'0 0.0
2016-Aug-18 21:24N 45°30' E 036°45'0 0.0
2016-Aug-18 20:31N 45°30' E 036°45'0 0.0
2016-Aug-18 19:32N 45°30' E 036°45'0 0.0
2016-Aug-18 18:33N 45°30' E 036°45'0 0.0
2016-Aug-18 16:28N 45°30' E 036°45'0 0.0
2016-Aug-18 15:28N 45°30' E 036°45'0 0.0
2016-Aug-18 14:32N 45°30' E 036°45'0 0.0
2016-Aug-18 12:10N 45°30' E 036°45'0 0.0
2016-Aug-18 11:03N 45°30' E 036°45'0 0.0
2016-Aug-18 09:23N 45°30' E 036°45'0 0.0
2016-Aug-18 08:28N 45°30' E 036°45'0 0.0
2016-Aug-18 07:32N 45°30' E 036°45'0 0.0
2016-Aug-18 06:24N 45°30' E 036°45'0 0.0
2016-Aug-18 05:26N 45°30' E 036°45'0 0.0
2016-Aug-18 04:27N 45°30' E 036°45'0 0.0
2016-Aug-18 00:22N 45°30' E 036°45'0 0.0
2016-Aug-17 20:11N 45°30' E 036°45'0 0.0
2016-Aug-17 19:33N 45°30' E 036°45'0 0.0
2016-Aug-17 16:33N 45°30' E 036°45'0 0.0
2016-Aug-17 15:33N 45°30' E 036°45'0 0.0
2016-Aug-17 14:32N 45°30' E 036°45'0 0.0
2016-Aug-17 13:31N 45°30' E 036°45'0 0.0
2016-Aug-17 12:24N 45°30' E 036°45'0 0.0
2016-Aug-17 11:33N 45°30' E 036°45'0 0.0
2016-Aug-17 10:30N 45°30' E 036°45'0 0.0
2016-Aug-17 09:33N 45°30' E 036°45'0 0.0
2016-Aug-17 08:33N 45°30' E 036°45'0 0.0
2016-Aug-17 07:33N 45°30' E 036°45'0 0.0
2016-Aug-17 06:33N 45°30' E 036°45'0 0.0
2016-Aug-17 04:28N 45°30' E 036°45'0 0.0
2016-Aug-17 03:33N 45°30' E 036°45'0 0.0
2016-Aug-17 02:17N 45°30' E 036°45'0 0.0
2016-Aug-16 22:33N 45°30' E 036°45'0 0.0
2016-Aug-16 21:29N 45°30' E 036°45'0 0.0
2016-Aug-16 20:29N 45°30' E 036°45'0 0.0
2016-Aug-16 19:19N 45°30' E 036°45'0 0.0
2016-Aug-16 18:33N 45°30' E 036°45'0 0.0
2016-Aug-16 17:34N 45°30' E 036°45'0 0.0
2016-Aug-16 16:33N 45°30' E 036°45'0 0.0
2016-Aug-16 15:33N 45°30' E 036°45'0 0.0
2016-Aug-16 14:34N 45°30' E 036°45'0 0.0
2016-Aug-16 13:33N 45°30' E 036°45'0 0.0
2016-Aug-16 12:33N 45°30' E 036°45'0 0.0
2016-Aug-16 11:33N 45°30' E 036°45'0 0.0
2016-Aug-16 10:33N 45°30' E 036°45'0 0.0
2016-Aug-16 09:34N 45°30' E 036°45'0 0.0
2016-Aug-16 08:25N 45°30' E 036°45'0 0.0
2016-Aug-16 06:11N 45°30' E 036°45'0 0.0
2016-Aug-16 04:25N 45°30' E 036°45'0 0.0
2016-Aug-16 03:33N 45°30' E 036°45'0 0.0
2016-Aug-16 02:33N 45°30' E 036°45'0 0.0
2016-Aug-15 20:09N 45°30' E 036°45'0 0.0
2016-Aug-15 19:33N 45°30' E 036°45'0 0.0
2016-Aug-15 18:30N 45°30' E 036°45'0 0.0
2016-Aug-15 17:31N 45°30' E 036°45'0 0.0
2016-Aug-15 16:31N 45°30' E 036°45'0 0.0
2016-Aug-15 15:33N 45°30' E 036°45'0 0.0
2016-Aug-15 14:34N 45°30' E 036°45'0 0.0
2016-Aug-15 12:33N 45°30' E 036°45'0 0.0
2016-Aug-15 11:33N 45°30' E 036°45'0 0.0
2016-Aug-15 10:33N 45°30' E 036°45'0 0.0
2016-Aug-15 09:33N 45°30' E 036°45'0 0.0
2016-Aug-15 08:30N 45°30' E 036°45'0 0.0
2016-Aug-15 06:23N 45°30' E 036°45'0 0.0
2016-Aug-15 03:17N 45°30' E 036°45'0 0.0
2016-Aug-15 02:25N 45°30' E 036°45'0 0.0
2016-Aug-14 16:23N 45°30' E 036°45'0 0.0
2016-Aug-14 07:30N 45°30' E 036°45'0 0.0
2016-Aug-14 04:31N 45°30' E 036°45'0 0.0
2016-Aug-14 03:33N 45°30' E 036°45'0 0.0
2016-Aug-13 14:10N 45°30' E 036°45'0 0.0
2016-Aug-13 11:28N 45°30' E 036°45'0 0.0
2016-Aug-13 10:20N 45°30' E 036°45'0 0.0
2016-Aug-13 09:23N 45°30' E 036°45'0 0.0
2016-Aug-13 07:32N 45°30' E 036°45'0 0.0
2016-Aug-13 05:27N 45°30' E 036°45'0 0.0
2016-Aug-13 04:29N 45°30' E 036°45'  
Track history (hours):
 
Tides and Currents Weather Stations Pressure Air Temp Water Temp Dewpoint Dewpoint Depression Visibility Wind Speed Wind Dir Waves Ship Positions

Volgoneft-250

Last reported at 2016-Aug-22 21:34 UTC. Time now 2016-Aug-29 21:41 UTC.
Position N 45°31' E 036°46'.

Length 132 m; draft 2.7 m.

Type: Tanker. MMSI: 273340600.

Date/timePositionNaut miles runAvg speedWind from/ knotsBaromVisibWave heightAir tempDewpointWater temp
2016-Aug-22 21:34N 45°31' E 036°46'8 7.8
2016-Aug-22 20:33N 45°24' E 036°41'7 6.9
2016-Aug-22 19:33N 45°19' E 036°33'6 6.3
2016-Aug-22 18:32N 45°14' E 036°28'5 4.7
2016-Aug-22 17:23N 45°09' E 036°32'3 1.2
2016-Aug-22 14:33N 45°06' E 036°35'0 0.0
2016-Aug-22 12:24N 45°06' E 036°35'0 0.0
2016-Aug-22 11:21N 45°06' E 036°35'0 0.1
2016-Aug-22 10:21N 45°06' E 036°35'0 0.0
2016-Aug-22 09:32N 45°06' E 036°35'0 0.0
2016-Aug-22 08:33N 45°06' E 036°35'6 1.2
2016-Aug-22 03:33N 45°10' E 036°28'9 4.5
2016-Aug-22 01:33N 45°19' E 036°32'6 5.7
2016-Aug-22 00:34N 45°21' E 036°39'7 6.5
2016-Aug-21 23:33N 45°27' E 036°42'4 1.7
2016-Aug-21 21:29N 45°30' E 036°45'0 0.0
2016-Aug-21 20:21N 45°30' E 036°45'0 0.0
2016-Aug-21 17:32N 45°30' E 036°45'0 0.0
2016-Aug-21 16:15N 45°30' E 036°45'0 0.0
2016-Aug-21 15:33N 45°30' E 036°45'0 0.0
2016-Aug-21 14:31N 45°30' E 036°45'0 0.0
2016-Aug-21 13:30N 45°30' E 036°45'0 0.0
2016-Aug-21 12:21N 45°30' E 036°45'0 0.0
2016-Aug-21 11:33N 45°30' E 036°45'0 0.0
2016-Aug-21 09:04N 45°30' E 036°45'0 0.0
2016-Aug-21 08:24N 45°30' E 036°45'0 0.0
2016-Aug-21 05:24N 45°30' E 036°45'0 0.0
2016-Aug-20 21:32N 45°30' E 036°45'0 0.0
2016-Aug-20 20:33N 45°30' E 036°45'0 0.0
2016-Aug-20 17:27N 45°30' E 036°45'0 0.0
2016-Aug-20 16:33N 45°30' E 036°45'0 0.0
2016-Aug-20 15:07N 45°30' E 036°45'0 0.0
2016-Aug-20 14:24N 45°30' E 036°45'0 0.0
2016-Aug-20 13:32N 45°30' E 036°45'0 0.0
2016-Aug-20 12:14N 45°30' E 036°45'0 0.0
2016-Aug-20 11:34N 45°30' E 036°45'0 0.0
2016-Aug-20 08:29N 45°30' E 036°45'0 0.0
2016-Aug-20 06:12N 45°30' E 036°45'0 0.0
2016-Aug-20 05:33N 45°30' E 036°45'0 0.0
2016-Aug-20 04:25N 45°30' E 036°45'0 0.0
2016-Aug-20 03:24N 45°30' E 036°45'0 0.0
2016-Aug-20 02:31N 45°30' E 036°45'0 0.0
2016-Aug-20 01:05N 45°30' E 036°45'0 0.0
2016-Aug-19 11:33N 45°30' E 036°45'0 0.0
2016-Aug-19 10:25N 45°30' E 036°45'0 0.0
2016-Aug-19 09:30N 45°30' E 036°45'0 0.0
2016-Aug-19 08:32N 45°30' E 036°45'0 0.0
2016-Aug-19 07:33N 45°30' E 036°45'0 0.1
2016-Aug-19 06:31N 45°30' E 036°45'0 0.1
2016-Aug-19 05:33N 45°30' E 036°45'0 0.0
2016-Aug-19 04:32N 45°30' E 036°45'0 0.0
2016-Aug-19 03:33N 45°30' E 036°45'0 0.0
2016-Aug-19 02:11N 45°30' E 036°45'0 0.0
2016-Aug-18 23:21N 45°30' E 036°45'0 0.0
2016-Aug-18 21:24N 45°30' E 036°45'0 0.0
2016-Aug-18 20:31N 45°30' E 036°45'0 0.0
2016-Aug-18 19:32N 45°30' E 036°45'0 0.0
2016-Aug-18 18:33N 45°30' E 036°45'0 0.0
2016-Aug-18 16:28N 45°30' E 036°45'0 0.0
2016-Aug-18 15:28N 45°30' E 036°45'0 0.0
2016-Aug-18 14:32N 45°30' E 036°45'0 0.0
2016-Aug-18 12:10N 45°30' E 036°45'0 0.0
2016-Aug-18 11:03N 45°30' E 036°45'0 0.0
2016-Aug-18 09:23N 45°30' E 036°45'0 0.0
2016-Aug-18 08:28N 45°30' E 036°45'0 0.0
2016-Aug-18 07:32N 45°30' E 036°45'0 0.0
2016-Aug-18 06:24N 45°30' E 036°45'0 0.0
2016-Aug-18 05:26N 45°30' E 036°45'0 0.0
2016-Aug-18 04:27N 45°30' E 036°45'0 0.0
2016-Aug-18 00:22N 45°30' E 036°45'0 0.0
2016-Aug-17 20:11N 45°30' E 036°45'0 0.0
2016-Aug-17 19:33N 45°30' E 036°45'0 0.0
2016-Aug-17 16:33N 45°30' E 036°45'0 0.0
2016-Aug-17 15:33N 45°30' E 036°45'0 0.0
2016-Aug-17 14:32N 45°30' E 036°45'0 0.0
2016-Aug-17 13:31N 45°30' E 036°45'0 0.0
2016-Aug-17 12:24N 45°30' E 036°45'0 0.0
2016-Aug-17 11:33N 45°30' E 036°45'0 0.0
2016-Aug-17 10:30N 45°30' E 036°45'0 0.0
2016-Aug-17 09:33N 45°30' E 036°45'0 0.0
2016-Aug-17 08:33N 45°30' E 036°45'0 0.0
2016-Aug-17 07:33N 45°30' E 036°45'0 0.0
2016-Aug-17 06:33N 45°30' E 036°45'0 0.0
2016-Aug-17 04:28N 45°30' E 036°45'0 0.0
2016-Aug-17 03:33N 45°30' E 036°45'0 0.0
2016-Aug-17 02:17N 45°30' E 036°45'0 0.0
2016-Aug-16 22:33N 45°30' E 036°45'0 0.0
2016-Aug-16 21:29N 45°30' E 036°45'0 0.0
2016-Aug-16 20:29N 45°30' E 036°45'0 0.0
2016-Aug-16 19:19N 45°30' E 036°45'0 0.0
2016-Aug-16 18:33N 45°30' E 036°45'0 0.0
2016-Aug-16 17:34N 45°30' E 036°45'0 0.0
2016-Aug-16 16:33N 45°30' E 036°45'0 0.0
2016-Aug-16 15:33N 45°30' E 036°45'0 0.0
2016-Aug-16 14:34N 45°30' E 036°45'0 0.0
2016-Aug-16 13:33N 45°30' E 036°45'0 0.0
2016-Aug-16 12:33N 45°30' E 036°45'0 0.0
2016-Aug-16 11:33N 45°30' E 036°45'0 0.0
2016-Aug-16 10:33N 45°30' E 036°45'0 0.0
2016-Aug-16 09:34N 45°30' E 036°45'0 0.0
2016-Aug-16 08:25N 45°30' E 036°45'0 0.0
2016-Aug-16 06:11N 45°30' E 036°45'0 0.0
2016-Aug-16 04:25N 45°30' E 036°45'0 0.0
2016-Aug-16 03:33N 45°30' E 036°45'0 0.0
2016-Aug-16 02:33N 45°30' E 036°45'0 0.0
2016-Aug-15 20:09N 45°30' E 036°45'0 0.0
2016-Aug-15 19:33N 45°30' E 036°45'0 0.0
2016-Aug-15 18:30N 45°30' E 036°45'0 0.0
2016-Aug-15 17:31N 45°30' E 036°45'0 0.0
2016-Aug-15 16:31N 45°30' E 036°45'0 0.0
2016-Aug-15 15:33N 45°30' E 036°45'0 0.0
2016-Aug-15 14:34N 45°30' E 036°45'0 0.0
2016-Aug-15 12:33N 45°30' E 036°45'0 0.0
2016-Aug-15 11:33N 45°30' E 036°45'0 0.0
2016-Aug-15 10:33N 45°30' E 036°45'0 0.0
2016-Aug-15 09:33N 45°30' E 036°45'0 0.0
2016-Aug-15 08:30N 45°30' E 036°45'0 0.0
2016-Aug-15 06:23N 45°30' E 036°45'0 0.0
2016-Aug-15 03:17N 45°30' E 036°45'0 0.0
2016-Aug-15 02:25N 45°30' E 036°45'0 0.0
2016-Aug-14 16:23N 45°30' E 036°45'0 0.0
2016-Aug-14 07:30N 45°30' E 036°45'0 0.0
2016-Aug-14 04:31N 45°30' E 036°45'0 0.0
2016-Aug-14 03:33N 45°30' E 036°45'0 0.0
2016-Aug-13 14:10N 45°30' E 036°45'0 0.0
2016-Aug-13 11:28N 45°30' E 036°45'0 0.0
2016-Aug-13 10:20N 45°30' E 036°45'0 0.0
2016-Aug-13 09:23N 45°30' E 036°45'0 0.0
2016-Aug-13 07:32N 45°30' E 036°45'0 0.0
2016-Aug-13 05:27N 45°30' E 036°45'0 0.0
2016-Aug-13 04:29N 45°30' E 036°45'  

Dump ship's entire track history